Time;durP1;ratioP1;P1;durP2;ratioP2;P2;SDS_P1;SDS_P2;PMS_P1;PMS_P2;Temp;Humidity;BMP_temperature;BMP_pressure;BME280_temperature;BME280_humidity;BME280_pressure;Samples;Min_cycle;Max_cycle;Signal;HPM_P1;HPM_P2
2023/12/09 00:02:31;;;;;;;139.30;60.40;;;;;;;-0.45;100.00;100262.40;107992;1262;25291;-81
2023/12/09 00:05:22;;;;;;;129.40;62.70;;;;;;;-0.44;100.00;100261.23;108056;1269;22521;-81
2023/12/09 00:08:13;;;;;;;120.70;57.20;;;;;;;-0.42;100.00;100259.48;107877;1267;25370;-81
2023/12/09 00:11:05;;;;;;;114.20;52.80;;;;;;;-0.42;100.00;100257.98;108196;1270;22647;-81
2023/12/09 00:13:59;;;;;;;124.00;51.30;;;;;;;-0.40;100.00;100259.40;108158;1269;22647;-81
2023/12/09 00:16:51;;;;;;;119.50;50.90;;;;;;;-0.39;100.00;100255.23;107840;1257;22593;-81
2023/12/09 00:19:42;;;;;;;122.70;50.20;;;;;;;-0.39;100.00;100255.23;107779;1267;25387;-82
2023/12/09 00:22:34;;;;;;;114.00;47.70;;;;;;;-0.37;100.00;100256.70;107865;1263;22530;-81
2023/12/09 00:25:25;;;;;;;124.50;50.30;;;;;;;-0.35;100.00;100257.87;107992;1270;24219;-81
2023/12/09 00:28:16;;;;;;;123.20;50.70;;;;;;;-0.34;100.00;100258.25;107966;1270;24250;-81
2023/12/09 00:31:08;;;;;;;107.30;47.00;;;;;;;-0.32;100.00;100255.88;107796;1270;25425;-81
2023/12/09 00:33:59;;;;;;;100.70;44.10;;;;;;;-0.33;100.00;100254.64;107781;1270;22646;-80
2023/12/09 00:36:50;;;;;;;105.70;46.80;;;;;;;-0.32;100.00;100256.81;107819;1271;23048;-81
2023/12/09 00:39:42;;;;;;;102.90;42.30;;;;;;;-0.33;100.00;100254.48;107899;1257;25281;-80
2023/12/09 00:42:33;;;;;;;100.10;43.60;;;;;;;-0.31;100.00;100255.55;108013;1269;22644;-81
2023/12/09 00:45:25;;;;;;;101.00;44.80;;;;;;;-0.30;100.00;100255.16;107848;1263;22564;-80
2023/12/09 00:48:16;;;;;;;112.20;50.90;;;;;;;-0.29;100.00;100249.20;107783;1262;22629;-81
2023/12/09 00:51:09;;;;;;;109.30;47.10;;;;;;;-0.26;100.00;100245.79;107849;1263;22599;-81
2023/12/09 00:54:01;;;;;;;113.70;47.40;;;;;;;-0.24;100.00;100243.58;107891;1264;23475;-80
2023/12/09 00:56:52;;;;;;;127.40;49.20;;;;;;;-0.22;100.00;100246.30;108098;1257;22641;-81
2023/12/09 00:59:43;;;;;;;96.60;42.10;;;;;;;-0.20;100.00;100248.87;107891;1263;24253;-80
2023/12/09 01:02:34;;;;;;;104.00;42.90;;;;;;;-0.18;100.00;100247.67;108013;1263;22563;-81
2023/12/09 01:05:25;;;;;;;111.90;44.40;;;;;;;-0.17;100.00;100259.35;107934;1269;24473;-81
2023/12/09 01:08:16;;;;;;;92.00;40.60;;;;;;;-0.16;100.00;100259.88;107905;1262;22534;-80
2023/12/09 01:11:08;;;;;;;92.80;41.40;;;;;;;-0.16;100.00;100260.90;108095;1266;24196;-81
2023/12/09 01:13:59;;;;;;;83.20;36.80;;;;;;;-0.14;100.00;100264.09;107872;1266;22667;-82
2023/12/09 01:16:50;;;;;;;79.50;32.20;;;;;;;-0.13;100.00;100265.27;107914;1263;24270;-81
2023/12/09 01:19:41;;;;;;;65.20;26.50;;;;;;;-0.10;100.00;100268.38;107957;1270;24084;-81
2023/12/09 01:22:33;;;;;;;53.20;22.30;;;;;;;-0.09;100.00;100269.86;108050;1269;24205;-81
2023/12/09 01:25:23;;;;;;;62.70;25.10;;;;;;;-0.07;100.00;100272.66;108179;1269;22524;-81
2023/12/09 01:28:14;;;;;;;56.10;22.00;;;;;;;-0.05;100.00;100277.51;107809;1263;23029;-81
2023/12/09 01:31:06;;;;;;;46.80;19.80;;;;;;;-0.02;100.00;100280.14;107854;1259;25202;-81
2023/12/09 01:33:57;;;;;;;49.70;21.60;;;;;;;0.01;100.00;100281.21;107945;1271;22643;-81
2023/12/09 01:36:49;;;;;;;49.40;20.90;;;;;;;0.02;100.00;100282.30;107863;1271;24048;-81
2023/12/09 01:39:41;;;;;;;58.30;23.20;;;;;;;0.03;100.00;100280.88;107531;1249;22524;-81
2023/12/09 01:42:32;;;;;;;56.50;23.60;;;;;;;0.03;100.00;100282.77;107943;1267;24216;-81
2023/12/09 01:45:23;;;;;;;55.10;23.20;;;;;;;0.03;100.00;100274.84;108363;1270;24380;-81
2023/12/09 01:48:16;;;;;;;48.60;22.40;;;;;;;0.03;100.00;100277.89;107956;1266;24714;-81
2023/12/09 01:51:08;;;;;;;55.50;22.20;;;;;;;0.04;100.00;100274.83;107860;1267;22739;-81
2023/12/09 01:54:00;;;;;;;45.60;18.70;;;;;;;0.06;100.00;100275.75;108183;1267;22532;-82
2023/12/09 01:56:51;;;;;;;44.20;17.60;;;;;;;0.09;100.00;100277.83;108312;1267;22593;-81
2023/12/09 01:59:42;;;;;;;38.60;16.10;;;;;;;0.11;100.00;100274.38;107786;1270;26633;-81
2023/12/09 02:02:34;;;;;;;37.90;15.50;;;;;;;0.13;100.00;100277.57;108183;1269;22555;-81
2023/12/09 02:05:26;;;;;;;33.40;13.40;;;;;;;0.15;100.00;100272.28;107911;1267;26236;-81
2023/12/09 02:08:17;;;;;;;31.60;12.40;;;;;;;0.18;100.00;100275.94;108025;1267;26640;-81
2023/12/09 02:11:18;;;;;;;32.00;11.30;;;;;;;0.19;100.00;100270.38;107842;1269;22629;-81
2023/12/09 02:14:14;;;;;;;34.90;14.40;;;;;;;0.21;100.00;100271.69;108064;1250;22534;-81
2023/12/09 02:17:12;;;;;;;30.30;11.00;;;;;;;0.22;100.00;100271.66;107885;1270;25916;-81
2023/12/09 02:20:06;;;;;;;35.90;12.50;;;;;;;0.23;100.00;100270.17;108030;1267;22697;-81
2023/12/09 02:23:06;;;;;;;34.40;13.60;;;;;;;0.25;100.00;100268.19;108363;1267;25509;-81
2023/12/09 02:26:04;;;;;;;26.90;10.70;;;;;;;0.26;100.00;100268.24;108076;1269;23806;-81
2023/12/09 02:29:01;;;;;;;33.60;12.90;;;;;;;0.27;100.00;100267.05;107855;1267;22648;-81
2023/12/09 02:31:57;;;;;;;38.00;12.70;;;;;;;0.27;100.00;100262.66;107885;1262;22546;-82
2023/12/09 02:34:50;;;;;;;31.00;12.60;;;;;;;0.29;100.00;100265.30;107869;1270;22521;-81
2023/12/09 02:37:42;;;;;;;31.70;12.00;;;;;;;0.31;100.00;100266.23;107787;1270;24211;-80
2023/12/09 02:40:35;;;;;;;35.20;12.90;;;;;;;0.32;100.00;100267.95;107844;1267;25412;-81
2023/12/09 02:43:26;;;;;;;36.60;14.80;;;;;;;0.32;100.00;100268.65;107969;1263;24251;-81
2023/12/09 02:46:18;;;;;;;36.90;14.10;;;;;;;0.34;100.00;100265.10;107961;1262;24084;-82
2023/12/09 02:49:10;;;;;;;34.10;12.80;;;;;;;0.35;100.00;100264.77;107906;1263;25307;-80
2023/12/09 02:52:02;;;;;;;38.50;14.60;;;;;;;0.35;100.00;100267.36;107805;1266;22640;-81
2023/12/09 02:54:53;;;;;;;36.80;14.00;;;;;;;0.37;100.00;100268.21;107810;1270;22641;-81
2023/12/09 02:57:44;;;;;;;41.20;15.20;;;;;;;0.37;100.00;100269.70;107698;1271;23293;-81
2023/12/09 03:00:35;;;;;;;35.70;13.40;;;;;;;0.39;100.00;100269.99;107818;1270;22642;-81
2023/12/09 03:03:26;;;;;;;34.50;12.60;;;;;;;0.38;100.00;100272.59;108073;1263;22990;-81
2023/12/09 03:06:17;;;;;;;36.50;14.70;;;;;;;0.38;100.00;100274.16;107910;1262;23708;-82
2023/12/09 03:09:08;;;;;;;40.70;14.70;;;;;;;0.38;100.00;100269.38;107865;1269;24176;-81
2023/12/09 03:11:59;;;;;;;35.00;15.10;;;;;;;0.39;100.00;100269.29;107958;1266;24251;-82
2023/12/09 03:14:50;;;;;;;39.10;13.20;;;;;;;0.39;100.00;100272.11;107921;1270;23172;-81
2023/12/09 03:17:42;;;;;;;34.10;13.50;;;;;;;0.39;100.00;100274.77;107900;1270;22612;-82
2023/12/09 03:20:33;;;;;;;32.70;12.70;;;;;;;0.40;100.00;100278.53;107967;1266;22599;-82
2023/12/09 03:23:25;;;;;;;39.90;14.00;;;;;;;0.40;100.00;100272.10;107954;1262;22663;-82
2023/12/09 03:26:20;;;;;;;36.40;13.80;;;;;;;0.40;100.00;100271.78;108165;1262;22762;-82
2023/12/09 03:29:11;;;;;;;36.30;13.40;;;;;;;0.41;100.00;100269.34;108001;1261;22593;-82
2023/12/09 03:32:02;;;;;;;35.40;14.60;;;;;;;0.41;100.00;100267.30;108088;1262;23904;-82
2023/12/09 03:34:54;;;;;;;31.20;12.30;;;;;;;0.42;100.00;100266.27;108165;1270;24255;-82
2023/12/09 03:37:44;;;;;;;31.90;11.90;;;;;;;0.42;100.00;100268.94;108323;1262;22575;-82
2023/12/09 03:40:36;;;;;;;33.00;11.90;;;;;;;0.41;100.00;100264.39;108184;1267;23391;-82
2023/12/09 03:43:27;;;;;;;35.10;13.00;;;;;;;0.41;100.00;100261.25;108587;1269;22564;-82
2023/12/09 03:46:18;;;;;;;31.40;13.10;;;;;;;0.42;100.00;100256.69;108407;1263;25415;-82
2023/12/09 03:49:09;;;;;;;34.30;13.60;;;;;;;0.43;100.00;100259.35;108282;1262;25373;-82
2023/12/09 03:52:00;;;;;;;30.30;11.70;;;;;;;0.43;100.00;100263.89;108210;1269;22619;-83
2023/12/09 03:54:52;;;;;;;31.80;11.80;;;;;;;0.45;100.00;100262.55;108267;1271;23145;-83
2023/12/09 03:57:43;;;;;;;34.50;12.60;;;;;;;0.47;100.00;100268.71;108674;1271;22541;-83
2023/12/09 04:00:35;;;;;;;31.60;11.40;;;;;;;0.48;100.00;100265.80;108293;1269;24249;-83
2023/12/09 04:03:27;;;;;;;30.90;12.10;;;;;;;0.48;100.00;100264.07;108490;1266;22556;-84
2023/12/09 04:06:18;;;;;;;30.10;11.70;;;;;;;0.48;100.00;100261.17;108887;1269;23822;-84
2023/12/09 04:09:10;;;;;;;32.40;12.00;;;;;;;0.49;100.00;100260.23;109024;1269;24328;-83
2023/12/09 04:12:01;;;;;;;30.90;11.50;;;;;;;0.51;100.00;100258.55;109017;1270;24322;-83
2023/12/09 04:14:52;;;;;;;28.90;11.60;;;;;;;0.53;100.00;100257.03;109085;1263;22553;-83
2023/12/09 04:17:43;;;;;;;28.40;11.20;;;;;;;0.52;100.00;100260.26;108959;1267;22545;-83
2023/12/09 04:20:35;;;;;;;32.90;11.50;;;;;;;0.52;100.00;100259.39;109137;1266;22571;-83
2023/12/09 04:23:26;;;;;;;30.00;11.30;;;;;;;0.53;100.00;100256.72;109023;1247;24186;-84
2023/12/09 04:26:17;;;;;;;27.20;10.60;;;;;;;0.53;100.00;100258.21;109107;1267;23004;-81
2023/12/09 04:29:08;;;;;;;29.00;10.40;;;;;;;0.55;100.00;100254.89;109131;1262;22546;-82
2023/12/09 04:31:59;;;;;;;31.20;11.80;;;;;;;0.56;100.00;100254.17;109121;1266;23354;-82
2023/12/09 04:34:50;;;;;;;25.60;10.00;;;;;;;0.57;100.00;100259.27;109047;1270;22555;-82
2023/12/09 04:37:41;;;;;;;31.00;10.50;;;;;;;0.57;100.00;100256.52;109127;1263;24294;-82
2023/12/09 04:40:32;;;;;;;28.70;11.30;;;;;;;0.57;100.00;100257.14;109042;1263;25358;-82
2023/12/09 04:43:23;;;;;;;29.40;10.50;;;;;;;0.57;100.00;100254.31;109097;1270;22710;-82
2023/12/09 04:46:14;;;;;;;25.50;10.80;;;;;;;0.58;100.00;100257.67;109124;1263;25366;-83
2023/12/09 04:49:06;;;;;;;27.90;10.60;;;;;;;0.58;100.00;100255.39;109127;1257;23189;-82
2023/12/09 04:51:57;;;;;;;27.70;9.70;;;;;;;0.58;100.00;100258.39;109113;1271;23207;-83
2023/12/09 04:54:48;;;;;;;27.70;9.90;;;;;;;0.59;100.00;100259.48;108267;1259;22527;-86
2023/12/09 04:57:39;;;;;;;28.00;11.40;;;;;;;0.59;100.00;100257.98;107897;1271;22527;-83
2023/12/09 05:00:30;;;;;;;30.30;10.90;;;;;;;0.60;100.00;100259.23;108083;1266;24243;-84
2023/12/09 05:03:22;;;;;;;27.10;9.10;;;;;;;0.59;100.00;100260.27;107937;1266;24187;-84
2023/12/09 05:06:13;;;;;;;29.70;10.70;;;;;;;0.59;100.00;100255.08;107848;1263;22669;-83
2023/12/09 05:09:04;;;;;;;28.00;10.00;;;;;;;0.60;100.00;100252.95;108083;1270;25623;-83
2023/12/09 05:11:55;;;;;;;26.40;10.40;;;;;;;0.58;100.00;100253.52;107905;1270;25549;-84
2023/12/09 05:14:47;;;;;;;30.50;10.90;;;;;;;0.57;100.00;100249.06;107922;1269;22644;-83
2023/12/09 05:17:40;;;;;;;28.50;9.60;;;;;;;0.56;100.00;100253.55;107935;1269;22539;-83
2023/12/09 05:20:31;;;;;;;23.10;8.60;;;;;;;0.56;100.00;100250.57;107751;1259;24383;-83
2023/12/09 05:23:23;;;;;;;26.00;10.90;;;;;;;0.54;100.00;100249.48;107893;1266;25552;-83
2023/12/09 05:26:23;;;;;;;27.60;10.70;;;;;;;0.53;100.00;100251.15;107850;1262;22535;-84
2023/12/09 05:29:15;;;;;;;30.60;10.80;;;;;;;0.54;100.00;100255.05;108089;1269;24336;-84
2023/12/09 05:32:07;;;;;;;29.10;11.50;;;;;;;0.55;100.00;100258.35;108141;1269;24357;-84
2023/12/09 05:34:59;;;;;;;27.20;10.30;;;;;;;0.55;100.00;100250.81;108255;1269;22513;-84
2023/12/09 05:37:50;;;;;;;27.40;9.90;;;;;;;0.56;100.00;100253.70;108271;1263;22570;-84
2023/12/09 05:40:41;;;;;;;30.80;10.50;;;;;;;0.56;100.00;100255.27;108315;1267;22531;-84
2023/12/09 05:43:32;;;;;;;36.20;12.50;;;;;;;0.56;100.00;100256.23;108214;1269;22602;-83
2023/12/09 05:46:23;;;;;;;32.60;13.60;;;;;;;0.56;100.00;100256.23;108332;1263;24642;-84
2023/12/09 05:49:14;;;;;;;32.10;13.00;;;;;;;0.56;100.00;100254.71;108392;1263;22981;-84
2023/12/09 05:52:06;;;;;;;32.20;14.50;;;;;;;0.56;100.00;100253.85;108071;1270;22553;-85
2023/12/09 05:54:58;;;;;;;30.10;12.60;;;;;;;0.58;100.00;100254.48;108201;1271;24274;-85
2023/12/09 05:57:49;;;;;;;33.20;12.40;;;;;;;0.59;100.00;100259.08;108318;1270;22643;-85
2023/12/09 06:00:40;;;;;;;28.40;10.50;;;;;;;0.60;100.00;100258.52;107928;1266;23319;-85
2023/12/09 06:03:31;;;;;;;28.30;10.20;;;;;;;0.61;100.00;100258.89;108221;1259;25140;-85
2023/12/09 06:06:22;;;;;;;30.40;11.30;;;;;;;0.62;100.00;100255.52;108194;1263;22553;-84
2023/12/09 06:09:14;;;;;;;31.50;12.10;;;;;;;0.64;100.00;100257.54;108214;1269;23876;-84
2023/12/09 06:12:06;;;;;;;33.60;12.90;;;;;;;0.64;100.00;100256.27;111215;1269;22900;-85
2023/12/09 06:14:57;;;;;;;29.80;11.50;;;;;;;0.63;100.00;100259.50;111198;1256;22158;-85
2023/12/09 06:17:48;;;;;;;35.20;13.90;;;;;;;0.61;100.00;100259.83;111174;1267;22878;-86
2023/12/09 06:20:40;;;;;;;27.20;11.20;;;;;;;0.62;100.00;100261.23;111135;1270;22151;-86
2023/12/09 06:23:31;;;;;;;35.60;13.20;;;;;;;0.63;100.00;100259.58;111122;1266;22084;-85
2023/12/09 06:26:22;;;;;;;36.10;15.80;;;;;;;0.65;100.00;100256.10;110612;1266;22521;-85
2023/12/09 06:29:16;;;;;;;36.30;15.40;;;;;;;0.66;100.00;100261.90;107869;1269;25400;-85
2023/12/09 06:32:07;;;;;;;37.40;14.30;;;;;;;0.67;100.00;100262.52;108102;1270;22564;-84
2023/12/09 06:34:59;;;;;;;36.80;14.50;;;;;;;0.67;100.00;100262.34;107888;1267;23339;-84
2023/12/09 06:37:50;;;;;;;39.90;15.50;;;;;;;0.69;100.00;100267.11;110147;1268;22600;-88
2023/12/09 06:40:45;;;;;;;37.10;14.10;;;;;;;0.70;100.00;100270.31;111205;1266;22575;-87
2023/12/09 06:43:46;;;;;;;36.00;13.70;;;;;;;0.74;100.00;100268.47;111212;1267;24196;-88
2023/12/09 06:46:41;;;;;;;28.70;12.20;;;;;;;0.76;100.00;100270.34;111117;1267;24206;-90
2023/12/09 06:49:34;;;;;;;29.30;11.30;;;;;;;0.78;100.00;100276.12;111072;1263;22781;-91
2023/12/09 06:52:27;;;;;;;33.20;12.20;;;;;;;0.77;100.00;100275.02;111375;1263;22389;-89
2023/12/09 06:55:19;;;;;;;26.70;9.90;;;;;;;0.79;100.00;100272.02;111371;1270;22203;-89
2023/12/09 06:58:29;;;;;;;29.30;10.90;;;;;;;0.82;100.00;100275.20;106725;1302;543175;-90
2023/12/09 07:01:27;;;;;;;28.40;11.70;;;;;;;0.80;100.00;100275.21;109637;1275;22580;-88
2023/12/09 07:04:19;;;;;;;25.80;10.80;;;;;;;0.81;100.00;100278.11;109005;1273;22562;-88
2023/12/09 07:07:11;;;;;;;30.30;12.50;;;;;;;0.81;100.00;100280.02;109642;1275;24228;-89
2023/12/09 07:10:05;;;;;;;30.10;12.30;;;;;;;0.80;100.00;100279.86;108763;1275;25041;-89
2023/12/09 07:12:57;;;;;;;33.60;14.20;;;;;;;0.80;100.00;100280.16;104855;1273;5094091;-89
2023/12/09 07:15:51;;;;;;;37.70;15.70;;;;;;;0.81;100.00;100282.58;109027;1271;22469;-89
2023/12/09 07:18:46;;;;;;;37.30;17.30;;;;;;;0.81;100.00;100279.21;108723;1271;22524;-89
2023/12/09 07:21:39;;;;;;;36.40;16.10;;;;;;;0.81;100.00;100277.71;108867;1272;25871;-88
2023/12/09 07:24:33;;;;;;;32.40;15.60;;;;;;;0.83;100.00;100274.88;108886;1270;22551;-90
2023/12/09 07:27:25;;;;;;;37.30;16.30;;;;;;;0.85;100.00;100273.35;108970;1266;22554;-89
2023/12/09 07:30:18;;;;;;;38.40;16.00;;;;;;;0.87;100.00;100273.73;111082;1270;22451;-90
2023/12/09 07:33:12;;;;;;;43.30;21.20;;;;;;;0.89;100.00;100270.62;108977;1268;25277;-90
2023/12/09 07:36:05;;;;;;;40.10;18.60;;;;;;;0.90;100.00;100269.75;108738;1269;25281;-87
2023/12/09 07:38:57;;;;;;;45.10;21.40;;;;;;;0.91;100.00;100264.55;109059;1254;22598;-89
2023/12/09 07:41:51;;;;;;;48.00;24.30;;;;;;;0.93;100.00;100265.64;108870;1269;22654;-88
2023/12/09 07:44:43;;;;;;;42.70;21.50;;;;;;;0.93;100.00;100266.73;109171;1264;22557;-88
2023/12/09 07:47:36;;;;;;;42.90;20.70;;;;;;;0.93;100.00;100258.89;110538;1261;22595;-89
2023/12/09 07:50:28;;;;;;;45.70;20.30;;;;;;;0.94;100.00;100260.65;111156;1266;22535;-90
2023/12/09 07:53:24;;;;;;;40.90;18.90;;;;;;;0.95;100.00;100261.05;110837;1264;22552;-91
2023/12/09 07:56:23;;;;;;;50.40;23.30;;;;;;;0.95;100.00;100261.67;111402;1263;22547;-90
2023/12/09 07:59:14;;;;;;;52.60;25.50;;;;;;;0.94;100.00;100264.29;111036;1261;23328;-86
2023/12/09 08:02:06;;;;;;;74.30;35.00;;;;;;;0.94;100.00;100264.76;110216;1266;22541;-90
2023/12/09 08:04:59;;;;;;;79.30;36.70;;;;;;;0.97;100.00;100263.39;111064;1268;22470;-89
2023/12/09 08:07:52;;;;;;;71.20;32.00;;;;;;;0.99;100.00;100263.13;111097;1261;22545;-85
2023/12/09 08:10:43;;;;;;;74.10;35.20;;;;;;;0.99;100.00;100261.23;111001;1268;23042;-88
2023/12/09 08:13:36;;;;;;;81.50;36.40;;;;;;;0.99;100.00;100256.45;110734;1267;22567;-85
2023/12/09 08:16:32;;;;;;;75.10;34.30;;;;;;;0.99;100.00;100260.05;111151;1260;22561;-88
2023/12/09 08:19:24;;;;;;;68.00;29.20;;;;;;;1.01;100.00;100257.66;111488;1260;22543;-86
2023/12/09 08:22:17;;;;;;;61.10;29.40;;;;;;;1.02;100.00;100257.65;111072;1260;22551;-86
2023/12/09 08:25:25;;;;;;;67.10;29.90;;;;;;;1.05;100.00;100259.88;111205;1261;22578;-86
2023/12/09 08:28:19;;;;;;;67.50;27.70;;;;;;;1.11;100.00;100259.17;111621;1266;22529;-89
2023/12/09 08:31:15;;;;;;;63.70;28.00;;;;;;;1.14;100.00;100256.70;111230;1260;22493;-87
2023/12/09 08:34:08;;;;;;;65.50;28.10;;;;;;;1.15;100.00;100253.13;111022;1268;22605;-87
2023/12/09 08:37:04;;;;;;;60.20;25.10;;;;;;;1.18;100.00;100249.11;111263;1268;22555;-90
2023/12/09 08:40:32;;;;;;;57.30;25.70;;;;;;;1.23;100.00;100247.45;107061;1299;542752;-92
2023/12/09 08:43:25;;;;;;;50.70;24.00;;;;;;;1.22;100.00;100252.17;110526;1257;22687;-86
2023/12/09 08:46:22;;;;;;;49.60;22.00;;;;;;;1.25;100.00;100248.67;109106;1276;22724;-86
2023/12/09 08:49:16;;;;;;;53.90;22.70;;;;;;;1.27;100.00;100253.67;110133;1270;22709;-86
2023/12/09 08:52:09;;;;;;;53.80;24.40;;;;;;;1.31;100.00;100243.48;110421;1269;22291;-85
2023/12/09 08:55:03;;;;;;;42.80;20.50;;;;;;;1.33;100.00;100246.75;110145;1275;443007;-90
2023/12/09 08:57:57;;;;;;;46.90;21.80;;;;;;;1.33;100.00;100242.73;110392;1273;22548;-87
2023/12/09 09:00:49;;;;;;;59.10;25.10;;;;;;;1.35;100.00;100244.42;109856;1261;22828;-90
2023/12/09 09:03:43;;;;;;;47.80;24.20;;;;;;;1.37;100.00;100243.38;109694;1275;22862;-89
2023/12/09 09:06:37;;;;;;;63.00;29.40;;;;;;;1.38;100.00;100249.25;110069;1275;23255;-89
2023/12/09 09:09:30;;;;;;;75.20;33.20;;;;;;;1.38;100.00;100250.84;110161;1268;22612;-87
2023/12/09 09:12:39;;;;;;;90.20;37.20;;;;;;;1.39;100.00;100251.21;110508;1275;22589;-88
2023/12/09 09:15:31;;;;;;;103.80;41.30;;;;;;;1.40;100.00;100246.39;110497;1270;22530;-87
2023/12/09 09:18:24;;;;;;;108.90;43.70;;;;;;;1.44;100.00;100246.02;110540;1275;22573;-86
2023/12/09 09:21:17;;;;;;;80.20;35.60;;;;;;;1.46;100.00;100245.04;111194;1263;22590;-88
2023/12/09 09:24:11;;;;;;;79.20;35.00;;;;;;;1.47;100.00;100241.80;111222;1266;22358;-85
2023/12/09 09:27:07;;;;;;;68.10;30.70;;;;;;;1.49;100.00;100240.12;111046;1269;22111;-86
2023/12/09 09:30:00;;;;;;;55.60;29.50;;;;;;;1.51;100.00;100239.84;111109;1263;23106;-86
2023/12/09 09:32:51;;;;;;;79.10;39.60;;;;;;;1.55;100.00;100239.09;111022;1264;22195;-86
2023/12/09 09:35:46;;;;;;;74.70;37.30;;;;;;;1.56;100.00;100241.02;111554;1248;22191;-85
2023/12/09 09:38:40;;;;;;;78.20;37.90;;;;;;;1.58;100.00;100240.13;111999;1246;22487;-85
2023/12/09 09:41:39;;;;;;;84.70;39.30;;;;;;;1.59;100.00;100240.41;111958;1254;22514;-90
2023/12/09 09:44:56;;;;;;;85.50;40.10;;;;;;;1.61;100.00;100233.63;111521;1253;23348;31
2023/12/09 09:47:51;;;;;;;72.50;31.00;;;;;;;1.64;100.00;100230.91;110606;1271;22529;-85
2023/12/09 10:33:01;;;;;;;45.20;23.50;;;;;;;1.92;100.00;100178.05;101733;1270;22922;-87
2023/12/09 10:58:57;;;;;;;32.60;14.30;;;;;;;2.44;100.00;100151.65;110837;1267;22420;-86
2023/12/09 11:01:48;;;;;;;32.10;14.60;;;;;;;2.43;100.00;100154.12;112074;1253;22497;-90
2023/12/09 11:04:40;;;;;;;30.90;13.90;;;;;;;2.42;100.00;100153.91;111387;1253;22516;-88
2023/12/09 11:07:35;;;;;;;26.60;10.90;;;;;;;2.41;100.00;100150.23;112070;1249;22516;-90
2023/12/09 11:10:45;;;;;;;29.90;13.00;;;;;;;2.40;100.00;100144.48;112173;1251;22544;-91
2023/12/09 11:13:44;;;;;;;28.40;10.70;;;;;;;2.41;100.00;100141.09;111556;1250;22465;-90
2023/12/09 11:16:43;;;;;;;29.80;11.60;;;;;;;2.40;100.00;100134.98;112531;1250;22534;-90
2023/12/09 11:19:33;;;;;;;28.50;11.10;;;;;;;2.38;100.00;100134.36;112574;1250;23157;-93
2023/12/09 11:22:26;;;;;;;32.80;12.60;;;;;;;2.37;100.00;100141.34;112455;1250;22495;-92
2023/12/09 11:25:22;;;;;;;28.60;11.00;;;;;;;2.36;100.00;100137.65;112627;1242;22596;-90
2023/12/09 11:28:13;;;;;;;30.20;12.10;;;;;;;2.38;100.00;100135.57;112869;1239;22541;-89
2023/12/09 11:31:03;;;;;;;27.30;11.80;;;;;;;2.39;100.00;100131.77;112756;1243;22451;-92
2023/12/09 11:34:15;;;;;;;32.70;12.50;;;;;;;2.39;100.00;100133.42;112858;1243;22574;-90
2023/12/09 11:37:10;;;;;;;29.70;11.40;;;;;;;2.38;100.00;100134.54;112630;1242;22559;-91
2023/12/09 11:40:01;;;;;;;29.00;11.50;;;;;;;2.40;100.00;100128.21;113090;1243;22552;-91
2023/12/09 11:42:52;;;;;;;35.20;13.60;;;;;;;2.40;100.00;100120.78;113163;1243;22547;-90
2023/12/09 11:45:42;;;;;;;30.00;13.00;;;;;;;2.42;100.00;100118.78;112422;1242;23812;-90
2023/12/09 11:48:54;;;;;;;28.80;11.90;;;;;;;2.43;100.00;100124.98;113137;1242;25332;-91
2023/12/09 11:51:43;;;;;;;26.70;10.80;;;;;;;2.43;100.00;100120.41;113394;1242;24183;-91
2023/12/09 11:54:36;;;;;;;26.50;10.60;;;;;;;2.45;100.00;100114.48;113426;1242;22728;-92
2023/12/09 11:57:27;;;;;;;32.00;11.00;;;;;;;2.44;100.00;100111.80;113676;1239;22335;-91
2023/12/09 12:00:18;;;;;;;31.00;10.90;;;;;;;2.46;100.00;100108.22;113525;1242;22783;-90
2023/12/09 12:03:23;;;;;;;34.70;11.80;;;;;;;2.47;100.00;100103.80;113659;1243;22576;-88
2023/12/09 12:06:12;;;;;;;31.60;12.20;;;;;;;2.49;100.00;100099.05;113832;1242;22615;-88
2023/12/09 12:09:10;;;;;;;30.60;12.90;;;;;;;2.49;100.00;100097.93;113676;1242;22586;-87
2023/12/09 12:12:00;;;;;;;27.70;12.00;;;;;;;2.50;100.00;100097.90;113844;1243;22524;-89
2023/12/09 12:14:49;;;;;;;27.70;11.50;;;;;;;2.52;100.00;100100.30;113892;1242;22540;-87
2023/12/09 12:17:42;;;;;;;27.30;9.90;;;;;;;2.53;100.00;100101.30;113785;1243;22546;-89
2023/12/09 12:20:32;;;;;;;28.30;11.70;;;;;;;2.53;100.00;100098.16;114342;1243;22299;-89
2023/12/09 12:23:21;;;;;;;24.80;9.20;;;;;;;2.53;100.00;100093.03;114325;1239;22191;-90
2023/12/09 12:26:14;;;;;;;23.70;9.10;;;;;;;2.51;100.00;100091.19;114326;1243;23022;-87
2023/12/09 12:29:04;;;;;;;22.70;9.20;;;;;;;2.50;100.00;100088.69;114295;1242;22235;-90
2023/12/09 18:27:39;;;;;;;168.50;78.00;;;;;;;0.76;100.00;99676.84;104537;1305;544239;-79
2023/12/09 18:30:30;;;;;;;127.60;63.10;;;;;;;0.75;100.00;99671.76;107611;1276;22947;-80
2023/12/09 18:33:22;;;;;;;117.70;55.90;;;;;;;0.72;100.00;99663.48;107581;1272;22521;-80
2023/12/09 18:36:13;;;;;;;83.90;38.90;;;;;;;0.72;100.00;99662.55;107821;1270;25285;-81
2023/12/09 18:39:05;;;;;;;84.40;41.60;;;;;;;0.69;100.00;99658.69;107438;1255;24464;-80
2023/12/09 18:41:57;;;;;;;90.90;40.10;;;;;;;0.69;100.00;99652.67;107771;1269;182476;-81
2023/12/09 18:44:48;;;;;;;93.20;42.20;;;;;;;0.65;100.00;99649.05;109271;1264;26534;-86
2023/12/09 18:47:40;;;;;;;78.50;38.10;;;;;;;0.63;100.00;99640.79;108073;1270;24336;-82
2023/12/09 18:50:32;;;;;;;84.10;39.80;;;;;;;0.60;100.00;99626.73;107702;1270;22531;-81
2023/12/09 18:53:24;;;;;;;85.20;38.90;;;;;;;0.57;100.00;99621.31;108019;1269;22627;-79
2023/12/09 18:56:15;;;;;;;81.40;37.20;;;;;;;0.51;100.00;99614.21;107821;1272;22678;-79
2023/12/09 18:59:07;;;;;;;102.40;44.10;;;;;;;0.46;100.00;99610.58;107969;1270;26910;-79
2023/12/09 19:01:58;;;;;;;92.50;40.80;;;;;;;0.42;100.00;99604.54;107828;1269;22547;-79
2023/12/09 19:04:51;;;;;;;81.00;37.20;;;;;;;0.39;100.00;99595.26;107875;1267;25362;-81
2023/12/09 19:07:42;;;;;;;71.70;34.80;;;;;;;0.34;100.00;99581.82;107830;1271;23905;-78
2023/12/09 19:10:33;;;;;;;77.80;39.60;;;;;;;0.28;100.00;99585.64;107768;1269;22557;-79
2023/12/09 19:13:25;;;;;;;74.40;34.10;;;;;;;0.19;100.00;99579.24;107997;1268;24152;-79
2023/12/09 19:16:16;;;;;;;76.30;37.00;;;;;;;0.14;100.00;99570.58;107882;1272;24349;-78
2023/12/09 19:19:08;;;;;;;73.60;35.40;;;;;;;0.15;100.00;99568.81;108007;1272;22638;-79
2023/12/09 19:22:00;;;;;;;71.80;34.70;;;;;;;0.14;100.00;99567.59;108377;1267;22522;-79
2023/12/09 19:24:51;;;;;;;80.40;39.30;;;;;;;0.13;100.00;99561.80;108056;1268;23708;-80
2023/12/09 19:27:44;;;;;;;61.50;30.60;;;;;;;0.08;100.00;99570.30;108338;1268;24297;-79
2023/12/09 19:30:35;;;;;;;73.20;34.70;;;;;;;-0.01;100.00;99571.03;108163;1260;25342;-79
2023/12/09 19:33:28;;;;;;;70.70;34.40;;;;;;;-0.06;100.00;99557.19;108407;1267;25443;-79
2023/12/09 19:36:21;;;;;;;73.80;34.40;;;;;;;-0.12;100.00;99556.94;108451;1268;25360;-78
2023/12/09 19:39:15;;;;;;;66.60;33.00;;;;;;;-0.16;100.00;99557.56;108286;1268;22551;-78
2023/12/09 19:42:07;;;;;;;69.20;33.10;;;;;;;-0.19;100.00;99548.06;111388;1267;22249;-79
2023/12/09 19:44:59;;;;;;;83.30;41.80;;;;;;;-0.17;100.00;99543.95;109487;1266;24264;-80
2023/12/09 19:47:54;;;;;;;78.30;37.10;;;;;;;-0.23;100.00;99544.35;108181;1269;25374;-79
2023/12/09 19:50:45;;;;;;;71.50;34.60;;;;;;;-0.27;100.00;99536.55;108502;1267;24348;-79
2023/12/09 19:53:37;;;;;;;80.90;35.50;;;;;;;-0.31;100.00;99535.05;108486;1266;24276;-79
2023/12/09 19:56:29;;;;;;;76.40;34.50;;;;;;;-0.31;100.00;99539.45;108350;1261;22528;-78